sensor_id;sensor_type;location;lat;lon;timestamp;pressure;altitude;pressure_sealevel;temperature;humidity
48668;BME280;34453;52.198;5.004;2022-07-06T00:01:24;102758.84;;;12.36;100.00
48668;BME280;34453;52.198;5.004;2022-07-06T00:03:50;102762.91;;;12.40;100.00
48668;BME280;34453;52.198;5.004;2022-07-06T00:06:15;102760.59;;;12.36;100.00
48668;BME280;34453;52.198;5.004;2022-07-06T00:08:43;102758.59;;;12.39;100.00
48668;BME280;34453;52.198;5.004;2022-07-06T00:11:09;102757.66;;;12.40;100.00
48668;BME280;34453;52.198;5.004;2022-07-06T00:13:35;102756.63;;;12.43;100.00
48668;BME280;34453;52.198;5.004;2022-07-06T00:16:00;102761.75;;;12.44;100.00
48668;BME280;34453;52.198;5.004;2022-07-06T00:18:26;102761.13;;;12.41;100.00
48668;BME280;34453;52.198;5.004;2022-07-06T00:20:52;102753.59;;;12.36;100.00
48668;BME280;34453;52.198;5.004;2022-07-06T00:23:17;102761.66;;;12.33;100.00
48668;BME280;34453;52.198;5.004;2022-07-06T00:25:43;102757.44;;;12.31;100.00
48668;BME280;34453;52.198;5.004;2022-07-06T00:28:09;102756.81;;;12.27;100.00
48668;BME280;34453;52.198;5.004;2022-07-06T00:30:34;102756.94;;;12.26;100.00
48668;BME280;34453;52.198;5.004;2022-07-06T00:33:00;102762.81;;;12.29;100.00
48668;BME280;34453;52.198;5.004;2022-07-06T00:35:25;102736.69;;;12.28;100.00
48668;BME280;34453;52.198;5.004;2022-07-06T00:37:51;102746.13;;;12.30;100.00
48668;BME280;34453;52.198;5.004;2022-07-06T00:40:17;102746.72;;;12.34;100.00
48668;BME280;34453;52.198;5.004;2022-07-06T00:42:47;102759.97;;;12.32;100.00
48668;BME280;34453;52.198;5.004;2022-07-06T00:45:14;102752.22;;;12.31;100.00
48668;BME280;34453;52.198;5.004;2022-07-06T00:47:41;102737.50;;;12.28;100.00
48668;BME280;34453;52.198;5.004;2022-07-06T00:50:08;102745.59;;;12.25;100.00
48668;BME280;34453;52.198;5.004;2022-07-06T00:52:42;102752.84;;;12.21;100.00
48668;BME280;34453;52.198;5.004;2022-07-06T00:55:09;102751.28;;;12.19;100.00
48668;BME280;34453;52.198;5.004;2022-07-06T00:57:36;102756.63;;;12.17;100.00
48668;BME280;34453;52.198;5.004;2022-07-06T01:00:07;102750.44;;;12.18;100.00
48668;BME280;34453;52.198;5.004;2022-07-06T01:02:35;102754.94;;;12.16;100.00
48668;BME280;34453;52.198;5.004;2022-07-06T01:05:03;102759.16;;;12.19;100.00
48668;BME280;34453;52.198;5.004;2022-07-06T01:07:29;102753.16;;;12.17;100.00
48668;BME280;34453;52.198;5.004;2022-07-06T01:09:55;102750.53;;;12.17;100.00
48668;BME280;34453;52.198;5.004;2022-07-06T01:12:21;102751.16;;;12.20;100.00
48668;BME280;34453;52.198;5.004;2022-07-06T01:14:47;102754.72;;;12.19;100.00
48668;BME280;34453;52.198;5.004;2022-07-06T01:17:13;102762.81;;;12.29;100.00
48668;BME280;34453;52.198;5.004;2022-07-06T01:19:39;102755.78;;;12.30;100.00
48668;BME280;34453;52.198;5.004;2022-07-06T01:22:05;102754.00;;;12.30;100.00
48668;BME280;34453;52.198;5.004;2022-07-06T01:24:30;102754.00;;;12.30;100.00
48668;BME280;34453;52.198;5.004;2022-07-06T01:26:57;102757.78;;;12.26;100.00
48668;BME280;34453;52.198;5.004;2022-07-06T01:29:22;102747.50;;;12.23;100.00
48668;BME280;34453;52.198;5.004;2022-07-06T01:31:49;102748.75;;;12.17;100.00
48668;BME280;34453;52.198;5.004;2022-07-06T01:34:17;102757.03;;;12.11;100.00
48668;BME280;34453;52.198;5.004;2022-07-06T01:36:42;102749.47;;;12.07;100.00
48668;BME280;34453;52.198;5.004;2022-07-06T01:39:08;102753.06;;;12.06;100.00
48668;BME280;34453;52.198;5.004;2022-07-06T01:41:34;102743.72;;;12.01;100.00
48668;BME280;34453;52.198;5.004;2022-07-06T01:44:00;102755.88;;;12.02;100.00
48668;BME280;34453;52.198;5.004;2022-07-06T01:46:26;102748.53;;;12.08;100.00
48668;BME280;34453;52.198;5.004;2022-07-06T01:48:52;102753.25;;;12.15;100.00
48668;BME280;34453;52.198;5.004;2022-07-06T01:51:18;102748.00;;;12.15;100.00
48668;BME280;34453;52.198;5.004;2022-07-06T01:53:43;102753.34;;;12.14;100.00
48668;BME280;34453;52.198;5.004;2022-07-06T01:56:10;102750.97;;;12.23;100.00
48668;BME280;34453;52.198;5.004;2022-07-06T01:58:36;102745.28;;;12.17;100.00
48668;BME280;34453;52.198;5.004;2022-07-06T02:01:07;102741.50;;;12.21;100.00
48668;BME280;34453;52.198;5.004;2022-07-06T02:03:33;102735.53;;;12.19;100.00
48668;BME280;34453;52.198;5.004;2022-07-06T02:05:59;102736.16;;;12.10;100.00
48668;BME280;34453;52.198;5.004;2022-07-06T02:08:25;102729.97;;;12.11;100.00
48668;BME280;34453;52.198;5.004;2022-07-06T02:10:51;102725.44;;;12.13;100.00
48668;BME280;34453;52.198;5.004;2022-07-06T02:13:16;102738.56;;;12.13;100.00
48668;BME280;34453;52.198;5.004;2022-07-06T02:15:42;102739.94;;;12.06;100.00
48668;BME280;34453;52.198;5.004;2022-07-06T02:18:07;102735.31;;;12.09;100.00
48668;BME280;34453;52.198;5.004;2022-07-06T02:20:33;102720.53;;;12.08;100.00
48668;BME280;34453;52.198;5.004;2022-07-06T02:22:58;102741.09;;;12.14;100.00
48668;BME280;34453;52.198;5.004;2022-07-06T02:25:24;102738.78;;;12.10;100.00
48668;BME280;34453;52.198;5.004;2022-07-06T02:27:50;102735.94;;;12.13;100.00
48668;BME280;34453;52.198;5.004;2022-07-06T02:30:15;102741.50;;;12.21;100.00
48668;BME280;34453;52.198;5.004;2022-07-06T02:32:42;102741.69;;;12.18;100.00
48668;BME280;34453;52.198;5.004;2022-07-06T02:35:07;102742.44;;;12.20;100.00
48668;BME280;34453;52.198;5.004;2022-07-06T02:37:33;102743.19;;;12.22;100.00
48668;BME280;34453;52.198;5.004;2022-07-06T02:39:58;102740.88;;;12.17;100.00
48668;BME280;34453;52.198;5.004;2022-07-06T02:42:24;102748.66;;;12.19;100.00
48668;BME280;34453;52.198;5.004;2022-07-06T02:44:52;102750.53;;;12.17;100.00
48668;BME280;34453;52.198;5.004;2022-07-06T02:47:18;102740.03;;;12.17;100.00
48668;BME280;34453;52.198;5.004;2022-07-06T02:49:44;102735.22;;;12.23;100.00
48668;BME280;34453;52.198;5.004;2022-07-06T02:52:09;102745.72;;;12.23;100.00
48668;BME280;34453;52.198;5.004;2022-07-06T02:54:35;102749.56;;;12.18;100.00
48668;BME280;34453;52.198;5.004;2022-07-06T02:57:00;102746.84;;;12.19;100.00
48668;BME280;34453;52.198;5.004;2022-07-06T02:59:26;102753.69;;;12.22;100.00
48668;BME280;34453;52.198;5.004;2022-07-06T03:01:51;102749.38;;;12.21;100.00
48668;BME280;34453;52.198;5.004;2022-07-06T03:04:17;102741.69;;;12.18;100.00
48668;BME280;34453;52.198;5.004;2022-07-06T03:06:42;102743.81;;;12.13;100.00
48668;BME280;34453;52.198;5.004;2022-07-06T03:09:08;102748.75;;;12.17;100.00
48668;BME280;34453;52.198;5.004;2022-07-06T03:11:33;102751.38;;;12.17;100.00
48668;BME280;34453;52.198;5.004;2022-07-06T03:14:03;102749.47;;;12.19;100.00
48668;BME280;34453;52.198;5.004;2022-07-06T03:16:29;102750.31;;;12.20;100.00
48668;BME280;34453;52.198;5.004;2022-07-06T03:18:54;102741.28;;;12.24;100.00
48668;BME280;34453;52.198;5.004;2022-07-06T03:21:20;102754.41;;;12.24;100.00
48668;BME280;34453;52.198;5.004;2022-07-06T03:23:45;102754.63;;;12.21;100.00
48668;BME280;34453;52.198;5.004;2022-07-06T03:26:11;102761.22;;;12.27;100.00
48668;BME280;34453;52.198;5.004;2022-07-06T03:28:36;102759.84;;;12.34;100.00
48668;BME280;34453;52.198;5.004;2022-07-06T03:31:02;102756.63;;;12.43;100.00
48668;BME280;34453;52.198;5.004;2022-07-06T03:33:27;102758.94;;;12.48;100.00
48668;BME280;34453;52.198;5.004;2022-07-06T03:35:53;102757.44;;;12.56;100.00
48668;BME280;34453;52.198;5.004;2022-07-06T03:38:18;102747.78;;;12.57;100.00
48668;BME280;34453;52.198;5.004;2022-07-06T03:40:44;102751.41;;;12.67;100.00
48668;BME280;34453;52.198;5.004;2022-07-06T03:43:09;102739.09;;;12.80;100.00
48668;BME280;34453;52.198;5.004;2022-07-06T03:45:35;102747.38;;;12.87;100.00
48668;BME280;34453;52.198;5.004;2022-07-06T03:48:01;102741.91;;;12.90;100.00
48668;BME280;34453;52.198;5.004;2022-07-06T03:50:27;102744.94;;;12.97;100.00
48668;BME280;34453;52.198;5.004;2022-07-06T03:52:52;102743.06;;;12.99;100.00
48668;BME280;34453;52.198;5.004;2022-07-06T03:55:18;102740.69;;;13.07;100.00
48668;BME280;34453;52.198;5.004;2022-07-06T03:57:43;102745.84;;;13.09;100.00
48668;BME280;34453;52.198;5.004;2022-07-06T04:00:09;102748.84;;;13.15;100.00
48668;BME280;34453;52.198;5.004;2022-07-06T04:02:35;102738.13;;;13.18;100.00
48668;BME280;34453;52.198;5.004;2022-07-06T04:05:00;102735.47;;;13.18;100.00
48668;BME280;34453;52.198;5.004;2022-07-06T04:07:26;102726.31;;;13.24;100.00
48668;BME280;34453;52.198;5.004;2022-07-06T04:09:52;102729.69;;;13.26;100.00
48668;BME280;34453;52.198;5.004;2022-07-06T04:12:17;102726.94;;;13.27;100.00
48668;BME280;34453;52.198;5.004;2022-07-06T04:14:43;102731.47;;;13.25;100.00
48668;BME280;34453;52.198;5.004;2022-07-06T04:17:09;102733.91;;;13.29;100.00
48668;BME280;34453;52.198;5.004;2022-07-06T04:19:53;102735.75;;;13.39;100.00
48668;BME280;34453;52.198;5.004;2022-07-06T04:22:19;102744.84;;;13.46;100.00
48668;BME280;34453;52.198;5.004;2022-07-06T04:24:45;102745.69;;;13.47;100.00
48668;BME280;34453;52.198;5.004;2022-07-06T04:27:11;102739.03;;;13.54;100.00
48668;BME280;34453;52.198;5.004;2022-07-06T04:29:36;102742.16;;;13.59;100.00
48668;BME280;34453;52.198;5.004;2022-07-06T04:32:02;102735.44;;;13.55;100.00
48668;BME280;34453;52.198;5.004;2022-07-06T04:34:28;102739.88;;;13.55;100.00
48668;BME280;34453;52.198;5.004;2022-07-06T04:36:54;102737.63;;;13.61;100.00
48668;BME280;34453;52.198;5.004;2022-07-06T04:39:19;102735.38;;;13.68;100.00
48668;BME280;34453;52.198;5.004;2022-07-06T04:41:45;102736.19;;;13.68;100.00
48668;BME280;34453;52.198;5.004;2022-07-06T04:44:11;102731.66;;;13.71;100.00
48668;BME280;34453;52.198;5.004;2022-07-06T04:46:36;102731.91;;;13.67;100.00
48668;BME280;34453;52.198;5.004;2022-07-06T04:49:02;102734.91;;;13.74;100.00
48668;BME280;34453;52.198;5.004;2022-07-06T04:51:28;102742.22;;;13.82;100.00
48668;BME280;34453;52.198;5.004;2022-07-06T04:53:53;102731.06;;;13.78;100.00
48668;BME280;34453;52.198;5.004;2022-07-06T04:56:19;102733.50;;;13.81;100.00
48668;BME280;34453;52.198;5.004;2022-07-06T04:58:44;102732.06;;;13.88;100.00
48668;BME280;34453;52.198;5.004;2022-07-06T05:01:10;102738.66;;;13.94;100.00
48668;BME280;34453;52.198;5.004;2022-07-06T05:03:36;102733.88;;;13.99;100.00
48668;BME280;34453;52.198;5.004;2022-07-06T05:06:06;102745.59;;;14.06;100.00
48668;BME280;34453;52.198;5.004;2022-07-06T05:08:32;102744.19;;;14.14;100.00
48668;BME280;34453;52.198;5.004;2022-07-06T05:10:58;102741.91;;;14.20;100.00
48668;BME280;34453;52.198;5.004;2022-07-06T05:13:24;102741.44;;;14.26;100.00
48668;BME280;34453;52.198;5.004;2022-07-06T05:15:49;102734.25;;;14.28;100.00
48668;BME280;34453;52.198;5.004;2022-07-06T05:18:15;102742.53;;;14.35;100.00
48668;BME280;34453;52.198;5.004;2022-07-06T05:20:40;102749.69;;;14.44;100.00
48668;BME280;34453;52.198;5.004;2022-07-06T05:23:06;102750.41;;;14.46;100.00
48668;BME280;34453;52.198;5.004;2022-07-06T05:25:32;102754.50;;;14.50;100.00
48668;BME280;34453;52.198;5.004;2022-07-06T05:27:58;102745.50;;;14.53;100.00
48668;BME280;34453;52.198;5.004;2022-07-06T05:30:25;102746.88;;;14.59;100.00
48668;BME280;34453;52.198;5.004;2022-07-06T05:32:51;102751.16;;;14.71;100.00
48668;BME280;34453;52.198;5.004;2022-07-06T05:35:16;102747.66;;;14.82;100.00
48668;BME280;34453;52.198;5.004;2022-07-06T05:37:42;102744.19;;;14.81;100.00
48668;BME280;34453;52.198;5.004;2022-07-06T05:40:08;102745.59;;;14.97;100.00
48668;BME280;34453;52.198;5.004;2022-07-06T05:42:34;102746.06;;;15.02;100.00
48668;BME280;34453;52.198;5.004;2022-07-06T05:45:00;102737.19;;;15.14;100.00
48668;BME280;34453;52.198;5.004;2022-07-06T05:47:26;102746.25;;;15.21;100.00
48668;BME280;34453;52.198;5.004;2022-07-06T05:50:23;102751.94;;;15.38;100.00
48668;BME280;34453;52.198;5.004;2022-07-06T05:53:00;102747.88;;;15.33;100.00
48668;BME280;34453;52.198;5.004;2022-07-06T05:55:26;102742.22;;;15.38;100.00
48668;BME280;34453;52.198;5.004;2022-07-06T05:57:53;102744.28;;;15.34;100.00
48668;BME280;34453;52.198;5.004;2022-07-06T06:00:20;102739.25;;;15.31;100.00
48668;BME280;34453;52.198;5.004;2022-07-06T06:02:46;102732.31;;;15.30;100.00
48668;BME280;34453;52.198;5.004;2022-07-06T06:05:13;102740.28;;;15.40;100.00
48668;BME280;34453;52.198;5.004;2022-07-06T06:07:39;102737.97;;;15.47;100.00
48668;BME280;34453;52.198;5.004;2022-07-06T06:10:10;102737.81;;;15.60;100.00
48668;BME280;34453;52.198;5.004;2022-07-06T06:12:37;102742.66;;;15.75;100.00
48668;BME280;34453;52.198;5.004;2022-07-06T06:15:03;102747.72;;;15.79;100.00
48668;BME280;34453;52.198;5.004;2022-07-06T06:17:29;102729.09;;;15.80;100.00
48668;BME280;34453;52.198;5.004;2022-07-06T06:19:55;102732.75;;;15.89;100.00
48668;BME280;34453;52.198;5.004;2022-07-06T06:22:20;102728.50;;;15.98;100.00
48668;BME280;34453;52.198;5.004;2022-07-06T06:24:46;102724.75;;;16.00;100.00
48668;BME280;34453;52.198;5.004;2022-07-06T06:27:12;102736.13;;;16.01;100.00
48668;BME280;34453;52.198;5.004;2022-07-06T06:29:38;102729.78;;;16.03;100.00
48668;BME280;34453;52.198;5.004;2022-07-06T06:32:03;102741.28;;;16.02;100.00
48668;BME280;34453;52.198;5.004;2022-07-06T06:34:31;102743.69;;;16.05;100.00
48668;BME280;34453;52.198;5.004;2022-07-06T06:36:57;102740.38;;;16.13;100.00
48668;BME280;34453;52.198;5.004;2022-07-06T06:39:23;102748.22;;;16.24;100.00
48668;BME280;34453;52.198;5.004;2022-07-06T06:41:48;102746.59;;;16.33;100.00
48668;BME280;34453;52.198;5.004;2022-07-06T06:44:14;102738.28;;;16.37;100.00
48668;BME280;34453;52.198;5.004;2022-07-06T06:46:40;102735.22;;;16.42;100.00
48668;BME280;34453;52.198;5.004;2022-07-06T06:49:06;102735.63;;;16.37;100.00
48668;BME280;34453;52.198;5.004;2022-07-06T06:51:32;102742.63;;;16.48;100.00
48668;BME280;34453;52.198;5.004;2022-07-06T06:53:58;102735.41;;;16.50;100.00
48668;BME280;34453;52.198;5.004;2022-07-06T06:56:24;102727.66;;;16.58;100.00
48668;BME280;34453;52.198;5.004;2022-07-06T06:58:49;102737.22;;;16.60;100.00
48668;BME280;34453;52.198;5.004;2022-07-06T07:01:15;102738.66;;;16.73;100.00
48668;BME280;34453;52.198;5.004;2022-07-06T07:03:41;102740.88;;;16.78;100.00
48668;BME280;34453;52.198;5.004;2022-07-06T07:06:07;102743.19;;;16.92;100.00
48668;BME280;34453;52.198;5.004;2022-07-06T07:08:32;102738.47;;;17.06;100.00
48668;BME280;34453;52.198;5.004;2022-07-06T07:10:58;102734.84;;;17.07;100.00
48668;BME280;34453;52.198;5.004;2022-07-06T07:13:24;102730.66;;;17.14;100.00
48668;BME280;34453;52.198;5.004;2022-07-06T07:15:50;102731.66;;;17.03;100.00
48668;BME280;34453;52.198;5.004;2022-07-06T07:18:15;102743.63;;;17.17;100.00
48668;BME280;34453;52.198;5.004;2022-07-06T07:20:41;102741.81;;;17.27;100.00
48668;BME280;34453;52.198;5.004;2022-07-06T07:23:07;102737.50;;;17.36;100.00
48668;BME280;34453;52.198;5.004;2022-07-06T07:25:32;102739.03;;;17.48;100.00
48668;BME280;34453;52.198;5.004;2022-07-06T07:27:58;102731.22;;;17.47;100.00
48668;BME280;34453;52.198;5.004;2022-07-06T07:30:24;102740.97;;;17.66;100.00
48668;BME280;34453;52.198;5.004;2022-07-06T07:32:49;102735.94;;;17.72;100.00
48668;BME280;34453;52.198;5.004;2022-07-06T07:35:15;102735.81;;;17.84;100.00
48668;BME280;34453;52.198;5.004;2022-07-06T07:37:40;102739.00;;;17.97;100.00
48668;BME280;34453;52.198;5.004;2022-07-06T07:40:06;102732.38;;;18.11;100.00
48668;BME280;34453;52.198;5.004;2022-07-06T07:42:32;102736.38;;;18.25;100.00
48668;BME280;34453;52.198;5.004;2022-07-06T07:44:58;102730.50;;;18.31;100.00
48668;BME280;34453;52.198;5.004;2022-07-06T07:47:23;102732.44;;;18.29;100.00
48668;BME280;34453;52.198;5.004;2022-07-06T07:49:49;102732.41;;;18.38;100.00
48668;BME280;34453;52.198;5.004;2022-07-06T07:52:15;102728.78;;;18.39;100.00
48668;BME280;34453;52.198;5.004;2022-07-06T07:54:41;102733.03;;;18.22;100.00
48668;BME280;34453;52.198;5.004;2022-07-06T07:57:07;102730.53;;;18.21;100.00
48668;BME280;34453;52.198;5.004;2022-07-06T07:59:32;102722.66;;;18.39;100.00
48668;BME280;34453;52.198;5.004;2022-07-06T08:01:58;102724.25;;;18.50;100.00
48668;BME280;34453;52.198;5.004;2022-07-06T08:04:24;102723.28;;;18.51;100.00
48668;BME280;34453;52.198;5.004;2022-07-06T08:06:50;102729.69;;;18.76;100.00
48668;BME280;34453;52.198;5.004;2022-07-06T08:09:15;102714.81;;;18.93;100.00
48668;BME280;34453;52.198;5.004;2022-07-06T08:11:42;102717.34;;;18.94;100.00
48668;BME280;34453;52.198;5.004;2022-07-06T08:14:08;102716.56;;;19.20;100.00
48668;BME280;34453;52.198;5.004;2022-07-06T08:16:33;102720.78;;;19.31;100.00
48668;BME280;34453;52.198;5.004;2022-07-06T08:18:59;102716.78;;;19.26;100.00
48668;BME280;34453;52.198;5.004;2022-07-06T08:21:25;102712.84;;;19.31;100.00
48668;BME280;34453;52.198;5.004;2022-07-06T08:23:52;102722.91;;;19.27;100.00
48668;BME280;34453;52.198;5.004;2022-07-06T08:26:18;102718.38;;;19.37;100.00
48668;BME280;34453;52.198;5.004;2022-07-06T08:28:44;102719.56;;;19.25;100.00
48668;BME280;34453;52.198;5.004;2022-07-06T08:31:10;102718.16;;;18.95;100.00
48668;BME280;34453;52.198;5.004;2022-07-06T08:33:37;102724.81;;;18.81;100.00
48668;BME280;34453;52.198;5.004;2022-07-06T08:36:03;102708.41;;;18.68;100.00
48668;BME280;34453;52.198;5.004;2022-07-06T08:38:29;102709.38;;;18.67;100.00
48668;BME280;34453;52.198;5.004;2022-07-06T08:40:54;102717.63;;;18.63;100.00
48668;BME280;34453;52.198;5.004;2022-07-06T08:43:20;102719.38;;;18.73;100.00
48668;BME280;34453;52.198;5.004;2022-07-06T08:45:49;102715.00;;;18.63;100.00
48668;BME280;34453;52.198;5.004;2022-07-06T08:48:16;102704.97;;;18.57;100.00
48668;BME280;34453;52.198;5.004;2022-07-06T08:50:41;102704.97;;;18.57;100.00
48668;BME280;34453;52.198;5.004;2022-07-06T08:53:07;102703.00;;;18.59;100.00
48668;BME280;34453;52.198;5.004;2022-07-06T08:55:33;102712.13;;;18.75;100.00
48668;BME280;34453;52.198;5.004;2022-07-06T08:57:59;102702.97;;;18.87;100.00
48668;BME280;34453;52.198;5.004;2022-07-06T09:00:25;102712.72;;;18.69;100.00
48668;BME280;34453;52.198;5.004;2022-07-06T09:02:51;102713.63;;;18.59;100.00
48668;BME280;34453;52.198;5.004;2022-07-06T09:05:21;102700.41;;;18.77;100.00
48668;BME280;34453;52.198;5.004;2022-07-06T09:07:52;102707.38;;;18.96;100.00
48668;BME280;34453;52.198;5.004;2022-07-06T09:10:19;102703.97;;;19.22;100.00
48668;BME280;34453;52.198;5.004;2022-07-06T09:12:46;102711.22;;;19.38;100.00
48668;BME280;34453;52.198;5.004;2022-07-06T09:15:11;102717.59;;;19.27;100.00
48668;BME280;34453;52.198;5.004;2022-07-06T09:17:38;102709.44;;;19.02;100.00
48668;BME280;34453;52.198;5.004;2022-07-06T09:20:07;102714.38;;;19.15;100.00
48668;BME280;34453;52.198;5.004;2022-07-06T09:22:34;102716.59;;;19.46;100.00
48668;BME280;34453;52.198;5.004;2022-07-06T09:27:36;102705.59;;;19.85;100.00
48668;BME280;34453;52.198;5.004;2022-07-06T09:30:02;102707.38;;;19.76;100.00
48668;BME280;34453;52.198;5.004;2022-07-06T09:32:28;102714.31;;;19.69;100.00
48668;BME280;34453;52.198;5.004;2022-07-06T09:34:53;102706.13;;;19.88;100.00
48668;BME280;34453;52.198;5.004;2022-07-06T09:37:21;102709.97;;;19.94;100.00
48668;BME280;34453;52.198;5.004;2022-07-06T09:39:49;102720.16;;;20.07;100.00
48668;BME280;34453;52.198;5.004;2022-07-06T09:42:14;102726.03;;;19.84;100.00
48668;BME280;34453;52.198;5.004;2022-07-06T09:44:41;102724.72;;;19.88;100.00
48668;BME280;34453;52.198;5.004;2022-07-06T09:47:08;102722.22;;;19.87;100.00
48668;BME280;34453;52.198;5.004;2022-07-06T09:49:36;102725.13;;;19.76;100.00
48668;BME280;34453;52.198;5.004;2022-07-06T09:52:05;102730.78;;;19.73;100.00
48668;BME280;34453;52.198;5.004;2022-07-06T09:54:32;102721.16;;;20.06;100.00
48668;BME280;34453;52.198;5.004;2022-07-06T09:56:58;102725.28;;;20.35;100.00
48668;BME280;34453;52.198;5.004;2022-07-06T09:59:30;102715.63;;;20.34;100.00
48668;BME280;34453;52.198;5.004;2022-07-06T10:02:06;102718.66;;;20.39;100.00
48668;BME280;34453;52.198;5.004;2022-07-06T10:04:32;102717.75;;;20.64;100.00
48668;BME280;34453;52.198;5.004;2022-07-06T10:06:59;102719.66;;;21.05;100.00
48668;BME280;34453;52.198;5.004;2022-07-06T10:09:26;102718.50;;;21.16;100.00
48668;BME280;34453;52.198;5.004;2022-07-06T10:11:55;102719.16;;;21.34;100.00
48668;BME280;34453;52.198;5.004;2022-07-06T10:14:26;102715.03;;;20.99;100.00
48668;BME280;34453;52.198;5.004;2022-07-06T10:16:53;102719.28;;;20.75;100.00
48668;BME280;34453;52.198;5.004;2022-07-06T10:19:20;102721.16;;;20.99;100.00
48668;BME280;34453;52.198;5.004;2022-07-06T10:21:47;102727.47;;;20.98;100.00
48668;BME280;34453;52.198;5.004;2022-07-06T10:24:14;102719.75;;;20.62;100.00
48668;BME280;34453;52.198;5.004;2022-07-06T10:26:41;102722.09;;;20.74;100.00
48668;BME280;34453;52.198;5.004;2022-07-06T10:29:07;102714.78;;;20.76;100.00
48668;BME280;34453;52.198;5.004;2022-07-06T10:31:35;102716.13;;;20.72;100.00
48668;BME280;34453;52.198;5.004;2022-07-06T10:34:04;102706.47;;;20.70;100.00
48668;BME280;34453;52.198;5.004;2022-07-06T10:36:37;102705.88;;;21.26;100.00
48668;BME280;34453;52.198;5.004;2022-07-06T10:39:03;102702.88;;;21.45;100.00
48668;BME280;34453;52.198;5.004;2022-07-06T10:41:48;102707.69;;;21.25;100.00
48668;BME280;34453;52.198;5.004;2022-07-06T10:44:19;102701.69;;;20.90;100.00
48668;BME280;34453;52.198;5.004;2022-07-06T10:46:58;102712.47;;;20.81;100.00
48668;BME280;34453;52.198;5.004;2022-07-06T10:49:25;102706.19;;;20.90;100.00
48668;BME280;34453;52.198;5.004;2022-07-06T10:51:52;102701.88;;;21.30;100.00
48668;BME280;34453;52.198;5.004;2022-07-06T10:54:19;102698.81;;;21.82;100.00
48668;BME280;34453;52.198;5.004;2022-07-06T10:56:50;102701.13;;;21.93;100.00
48668;BME280;34453;52.198;5.004;2022-07-06T10:59:23;102705.69;;;21.36;100.00
48668;BME280;34453;52.198;5.004;2022-07-06T11:04:40;102683.56;;;21.51;100.00
48668;BME280;34453;52.198;5.004;2022-07-06T11:07:08;102690.06;;;21.16;100.00
48668;BME280;34453;52.198;5.004;2022-07-06T11:09:35;102684.06;;;20.98;100.00
48668;BME280;34453;52.198;5.004;2022-07-06T11:12:12;102677.41;;;21.35;100.00
48668;BME280;34453;52.198;5.004;2022-07-06T11:14:39;102670.91;;;21.53;100.00
48668;BME280;34453;52.198;5.004;2022-07-06T11:17:09;102666.44;;;21.38;100.00
48668;BME280;34453;52.198;5.004;2022-07-06T11:22:09;102674.56;;;21.69;100.00
48668;BME280;34453;52.198;5.004;2022-07-06T11:24:40;102670.59;;;21.57;100.00
48668;BME280;34453;52.198;5.004;2022-07-06T11:27:06;102672.75;;;21.28;100.00
48668;BME280;34453;52.198;5.004;2022-07-06T11:29:33;102666.25;;;21.39;100.00
48668;BME280;34453;52.198;5.004;2022-07-06T11:32:01;102657.44;;;21.39;100.00
48668;BME280;34453;52.198;5.004;2022-07-06T11:34:33;102660.63;;;21.18;100.00
48668;BME280;34453;52.198;5.004;2022-07-06T11:37:05;102663.97;;;21.03;100.00
48668;BME280;34453;52.198;5.004;2022-07-06T11:39:34;102652.31;;;21.13;100.00
48668;BME280;34453;52.198;5.004;2022-07-06T11:42:01;102654.75;;;21.39;100.00
48668;BME280;34453;52.198;5.004;2022-07-06T11:44:27;102636.66;;;21.42;100.00
48668;BME280;34453;52.198;5.004;2022-07-06T11:46:53;102643.97;;;21.57;100.00
48668;BME280;34453;52.198;5.004;2022-07-06T11:49:21;102651.59;;;21.68;100.00
48668;BME280;34453;52.198;5.004;2022-07-06T11:51:47;102644.06;;;21.80;100.00
48668;BME280;34453;52.198;5.004;2022-07-06T11:54:17;102647.72;;;22.26;100.00
48668;BME280;34453;52.198;5.004;2022-07-06T11:56:57;102649.88;;;21.83;100.00
48668;BME280;34453;52.198;5.004;2022-07-06T11:59:34;102641.56;;;21.78;100.00
48668;BME280;34453;52.198;5.004;2022-07-06T12:02:09;102647.22;;;21.83;100.00
48668;BME280;34453;52.198;5.004;2022-07-06T12:04:40;102647.03;;;21.85;100.00
48668;BME280;34453;52.198;5.004;2022-07-06T12:07:08;102650.50;;;22.33;100.00
48668;BME280;34453;52.198;5.004;2022-07-06T12:09:36;102662.59;;;22.12;100.00
48668;BME280;34453;52.198;5.004;2022-07-06T12:12:03;102645.09;;;21.70;100.00
48668;BME280;34453;52.198;5.004;2022-07-06T12:14:30;102653.31;;;21.20;100.00
48668;BME280;34453;52.198;5.004;2022-07-06T12:17:05;102639.13;;;21.36;100.00
48668;BME280;34453;52.198;5.004;2022-07-06T12:19:32;102636.31;;;21.53;100.00
48668;BME280;34453;52.198;5.004;2022-07-06T12:21:57;102636.94;;;21.64;100.00
48668;BME280;34453;52.198;5.004;2022-07-06T12:24:25;102631.63;;;21.56;100.00
48668;BME280;34453;52.198;5.004;2022-07-06T12:26:53;102631.28;;;21.67;100.00
48668;BME280;34453;52.198;5.004;2022-07-06T12:29:19;102631.00;;;21.45;100.00
48668;BME280;34453;52.198;5.004;2022-07-06T12:31:56;102622.88;;;21.86;100.00
48668;BME280;34453;52.198;5.004;2022-07-06T12:34:29;102631.72;;;22.18;100.00
48668;BME280;34453;52.198;5.004;2022-07-06T12:37:06;102628.84;;;21.97;100.00
48668;BME280;34453;52.198;5.004;2022-07-06T12:39:43;102626.09;;;21.73;100.00
48668;BME280;34453;52.198;5.004;2022-07-06T12:42:10;102618.81;;;21.99;100.00
48668;BME280;34453;52.198;5.004;2022-07-06T12:44:50;102636.03;;;22.27;100.00
48668;BME280;34453;52.198;5.004;2022-07-06T12:47:22;102625.94;;;22.14;100.00